createdAt,value
2018-11-20T00:02:37.483Z,4.50
2018-11-20T00:05:20.045Z,4.80
2018-11-20T00:08:02.517Z,5.10
2018-11-20T00:10:44.928Z,5.20
2018-11-20T00:13:27.284Z,5.13
2018-11-20T00:16:09.782Z,6.35
2018-11-20T00:18:52.231Z,4.50
2018-11-20T00:21:22.434Z,4.10
2018-11-20T00:24:04.696Z,4.50
2018-11-20T00:26:47.205Z,4.50
2018-11-20T00:29:29.636Z,4.33
2018-11-20T00:32:12.041Z,4.27
2018-11-20T00:34:54.758Z,4.47
2018-11-20T00:37:37.165Z,4.43
2018-11-20T00:40:19.456Z,4.27
2018-11-20T00:43:01.650Z,5.83
2018-11-20T00:45:44.185Z,4.17
2018-11-20T00:48:26.598Z,4.10
2018-11-20T00:51:09.481Z,4.60
2018-11-20T00:53:51.867Z,4.20
2018-11-20T00:56:53.546Z,4.53
2018-11-20T00:59:36.111Z,6.10
2018-11-20T01:02:18.546Z,5.20
2018-11-20T01:05:00.851Z,4.13
2018-11-20T01:07:43.376Z,4.95
2018-11-20T01:10:25.812Z,5.00
2018-11-20T01:13:08.257Z,6.73
2018-11-20T01:15:50.768Z,5.08
2018-11-20T01:18:33.352Z,5.47
2018-11-20T01:21:06.119Z,5.50
2018-11-20T01:23:48.543Z,8.47
2018-11-20T01:26:30.823Z,5.67
2018-11-20T01:29:13.565Z,4.58
2018-11-20T01:31:55.977Z,6.47
2018-11-20T01:34:38.192Z,5.90
2018-11-20T01:37:20.440Z,4.63
2018-11-20T01:40:02.965Z,6.08
2018-11-20T01:42:45.404Z,4.97
2018-11-20T01:45:27.860Z,5.10
2018-11-20T01:48:10.378Z,4.70
2018-11-20T01:50:52.830Z,6.00
2018-11-20T01:53:35.306Z,6.73
2018-11-20T01:58:48.345Z,5.63
2018-11-20T02:01:23.305Z,5.00
2018-11-20T02:06:16.064Z,6.33
2018-11-20T02:08:50.855Z,10.03
2018-11-20T02:13:43.284Z,7.03
2018-11-20T02:16:18.731Z,6.03
2018-11-20T02:18:53.918Z,5.70
2018-11-20T02:21:34.515Z,6.97
2018-11-20T02:24:09.941Z,7.40
2018-11-20T02:26:34.880Z,7.20
2018-11-20T02:29:09.266Z,5.70
2018-11-20T02:34:46.695Z,8.20
2018-11-20T02:40:07.948Z,6.30
2018-11-20T02:42:57.837Z,7.30
2018-11-20T02:45:17.844Z,7.10
2018-11-20T02:47:53.399Z,6.50
2018-11-20T02:50:31.967Z,7.20
2018-11-20T02:53:07.355Z,6.53
2018-11-20T02:55:34.332Z,5.47
2018-11-20T02:58:06.531Z,6.22
2018-11-20T03:00:41.490Z,7.47
2018-11-20T03:05:46.091Z,6.53
2018-11-20T03:08:20.915Z,8.43
2018-11-20T03:10:55.873Z,7.80
2018-11-20T03:13:37.202Z,7.55
2018-11-20T03:16:12.311Z,6.83
2018-11-20T03:18:47.222Z,8.00
2018-11-20T03:21:28.263Z,9.70
2018-11-20T03:24:03.461Z,7.90
2018-11-20T03:26:37.889Z,10.37
2018-11-20T03:29:16.519Z,7.47
2018-11-20T03:34:08.827Z,7.33
2018-11-20T03:36:43.435Z,7.10
2018-11-20T03:39:21.918Z,9.30
2018-11-20T03:41:56.555Z,6.97
2018-11-20T03:44:21.913Z,8.03
2018-11-20T03:47:00.135Z,6.27
2018-11-20T03:51:52.488Z,8.70
2018-11-20T03:54:27.368Z,7.13
2018-11-20T03:56:52.558Z,6.00
2018-11-20T04:01:39.512Z,7.17
2018-11-20T04:04:14.366Z,7.50
2018-11-20T04:06:49.909Z,8.33
2018-11-20T04:09:22.802Z,7.97
2018-11-20T04:11:57.707Z,7.03
2018-11-20T04:14:33.086Z,6.90
2018-11-20T04:17:08.106Z,7.10
2018-11-20T04:19:48.875Z,7.27
2018-11-20T04:22:23.708Z,7.50
2018-11-20T04:24:58.687Z,7.42
2018-11-20T04:27:33.807Z,8.13
2018-11-20T04:30:08.195Z,7.73
2018-11-20T04:32:40.765Z,9.20
2018-11-20T04:35:09.405Z,8.30
2018-11-20T04:40:05.615Z,8.85
2018-11-20T04:42:40.263Z,7.33
2018-11-20T04:45:15.363Z,7.87
2018-11-20T04:47:50.446Z,6.90
2018-11-20T04:50:25.093Z,7.63
2018-11-20T04:52:48.481Z,7.20
2018-11-20T04:55:23.678Z,10.80
2018-11-20T04:57:58.213Z,8.60
2018-11-20T05:00:33.136Z,9.53
2018-11-20T05:03:08.617Z,7.83
2018-11-20T05:05:43.328Z,7.70
2018-11-20T05:08:10.415Z,8.50
2018-11-20T05:10:45.326Z,7.80
2018-11-20T05:13:20.708Z,8.40
2018-11-20T05:18:13.410Z,9.77
2018-11-20T05:20:48.180Z,9.17
2018-11-20T05:25:42.975Z,7.67
2018-11-20T05:28:18.286Z,7.72
2018-11-20T05:30:44.291Z,9.63
2018-11-20T05:33:22.828Z,8.97
2018-11-20T05:35:58.114Z,7.40
2018-11-20T05:38:33.051Z,8.73
2018-11-20T05:41:07.614Z,8.27
2018-11-20T05:43:48.883Z,11.20
2018-11-20T05:46:18.707Z,7.90
2018-11-20T05:51:40.560Z,7.43
2018-11-20T05:54:10.161Z,8.77
2018-11-20T05:56:45.466Z,8.90
2018-11-20T05:59:20.858Z,10.60
2018-11-20T06:01:55.694Z,8.03
2018-11-20T06:04:31.157Z,11.50
2018-11-20T06:06:54.514Z,13.03
2018-11-20T06:09:30.184Z,10.38
2018-11-20T06:12:04.942Z,8.40
2018-11-20T06:17:23.197Z,9.20
2018-11-20T06:19:48.921Z,9.90
2018-11-20T06:22:24.220Z,12.27
2018-11-20T06:30:03.947Z,8.20
2018-11-20T06:32:39.382Z,10.10
2018-11-20T06:35:14.451Z,7.63
2018-11-20T06:40:28.971Z,9.23
2018-11-20T06:43:03.643Z,9.33
2018-11-20T06:47:55.975Z,12.25
2018-11-20T06:50:31.742Z,8.20
2018-11-20T06:53:06.531Z,6.27
2018-11-20T06:55:40.987Z,7.87
2018-11-20T06:58:15.507Z,9.00
2018-11-20T07:00:56.268Z,10.32
2018-11-20T07:06:10.662Z,8.30
2018-11-20T07:08:48.851Z,9.60
2018-11-20T07:11:24.032Z,8.55
2018-11-20T07:13:58.896Z,11.00
2018-11-20T07:16:33.486Z,9.40
2018-11-20T07:19:08.324Z,9.87
2018-11-20T07:24:01.133Z,13.63
2018-11-20T07:26:36.565Z,10.30
2018-11-20T07:29:11.486Z,14.47
2018-11-20T07:31:46.672Z,10.13
2018-11-20T07:34:21.162Z,17.43
2018-11-20T07:36:56.298Z,11.17
2018-11-20T07:39:30.844Z,11.00
2018-11-20T07:44:57.954Z,19.27
2018-11-20T07:47:40.054Z,11.37
2018-11-20T07:50:22.137Z,11.37
2018-11-20T07:53:04.234Z,12.30
2018-11-20T07:55:46.539Z,10.80
2018-11-20T07:58:28.713Z,11.37
2018-11-20T08:01:10.542Z,13.07
2018-11-20T08:03:52.607Z,12.20
2018-11-20T08:06:34.847Z,12.40
2018-11-20T08:09:16.919Z,12.93
2018-11-20T08:11:59.009Z,12.00
2018-11-20T08:14:41.070Z,9.93
2018-11-20T08:17:23.115Z,16.67
2018-11-20T08:20:05.199Z,15.53
2018-11-20T08:22:47.287Z,11.43
2018-11-20T08:25:29.937Z,12.80
2018-11-20T08:28:11.840Z,11.90
2018-11-20T08:33:33.593Z,12.85
2018-11-20T08:36:08.157Z,12.50
2018-11-20T08:38:50.212Z,10.60
2018-11-20T08:41:31.264Z,18.90
2018-11-20T08:44:13.360Z,12.97
2018-11-20T08:46:53.544Z,14.00
2018-11-20T08:52:20.470Z,11.63
2018-11-20T08:55:02.366Z,13.20
2018-11-20T08:57:44.495Z,12.13
2018-11-20T09:00:26.705Z,13.60
2018-11-20T09:03:08.868Z,14.07
2018-11-20T09:05:50.887Z,13.50
2018-11-20T09:11:11.138Z,11.80
2018-11-20T09:13:53.239Z,12.00
2018-11-20T09:16:35.350Z,12.80
2018-11-20T09:19:17.493Z,12.13
2018-11-20T09:21:59.576Z,13.13
2018-11-20T09:27:17.967Z,11.77
2018-11-20T09:30:00.272Z,12.70
2018-11-20T09:32:29.922Z,11.30
2018-11-20T09:35:05.245Z,9.20
2018-11-20T09:40:17.980Z,14.40
2018-11-20T09:43:00.087Z,12.45
2018-11-20T09:45:38.303Z,10.10
2018-11-20T09:48:20.127Z,10.37
2018-11-20T09:51:02.289Z,9.85
2018-11-20T09:53:44.403Z,11.25
2018-11-20T09:56:26.526Z,9.98
2018-11-20T09:59:08.644Z,12.13
2018-11-20T10:01:50.784Z,9.00
2018-11-20T10:04:32.860Z,11.47
2018-11-20T10:07:15.115Z,10.47
2018-11-20T10:09:57.513Z,10.27
2018-11-20T10:12:39.577Z,10.80
2018-11-20T10:17:18.965Z,13.00
2018-11-20T10:19:53.444Z,10.27
2018-11-20T10:22:20.756Z,9.73
2018-11-20T10:24:41.643Z,9.50
2018-11-20T10:27:03.155Z,9.37
2018-11-20T10:29:47.865Z,10.70
2018-11-20T10:32:18.306Z,9.90
2018-11-20T10:34:39.978Z,10.40
2018-11-20T10:37:01.300Z,10.50
2018-11-20T10:39:23.718Z,10.10
2018-11-20T10:41:44.945Z,7.80
2018-11-20T10:44:19.768Z,9.00
2018-11-20T10:46:40.928Z,8.53
2018-11-20T10:49:02.098Z,9.47
2018-11-20T10:51:39.525Z,10.50
2018-11-20T10:53:52.069Z,10.05
2018-11-20T10:56:08.195Z,10.00
2018-11-20T10:58:28.835Z,9.73
2018-11-20T11:00:49.901Z,11.00
2018-11-20T11:03:12.511Z,9.87
2018-11-20T11:05:51.858Z,9.67
2018-11-20T11:08:12.817Z,8.78
2018-11-20T11:10:31.239Z,8.70
2018-11-20T11:12:52.241Z,38.10
2018-11-20T11:15:18.203Z,9.73
2018-11-20T11:17:39.501Z,8.00
2018-11-20T11:20:09.426Z,8.40
2018-11-20T11:22:30.685Z,9.53
2018-11-20T11:24:51.348Z,8.80
2018-11-20T11:27:06.611Z,8.33
2018-11-20T11:29:34.905Z,8.80
2018-11-20T11:31:55.775Z,9.10
2018-11-20T11:34:27.448Z,11.10
2018-11-20T11:36:55.621Z,8.40
2018-11-20T11:39:21.381Z,10.57
2018-11-20T11:41:55.755Z,8.07
2018-11-20T11:44:24.224Z,11.87
2018-11-20T11:46:45.461Z,8.25
2018-11-20T11:49:06.573Z,9.73
2018-11-20T11:51:27.474Z,9.03
2018-11-20T11:53:48.634Z,10.40
2018-11-20T11:56:29.087Z,8.93
2018-11-20T11:58:51.921Z,9.40
2018-11-20T12:01:20.690Z,14.47
2018-11-20T12:03:48.579Z,8.77
2018-11-20T12:06:09.796Z,8.83
2018-11-20T12:08:40.900Z,7.43
2018-11-20T12:11:01.683Z,8.37
2018-11-20T12:13:29.591Z,7.63
2018-11-20T12:15:57.758Z,10.70
2018-11-20T12:18:16.555Z,8.97
2018-11-20T12:20:39.022Z,10.72
2018-11-20T12:22:50.098Z,7.90
2018-11-20T12:25:10.903Z,8.30
2018-11-20T12:27:40.270Z,9.35
2018-11-20T12:30:04.529Z,9.60
2018-11-20T12:32:26.700Z,7.80
2018-11-20T12:34:48.413Z,10.07
2018-11-20T12:37:25.842Z,10.40
2018-11-20T12:39:46.895Z,10.50
2018-11-20T12:42:10.285Z,9.33
2018-11-20T12:44:30.509Z,8.48
2018-11-20T12:46:51.857Z,8.58
2018-11-20T12:49:12.624Z,9.80
2018-11-20T12:51:48.740Z,9.33
2018-11-20T12:53:59.730Z,8.20
2018-11-20T12:56:20.242Z,10.72
2018-11-20T12:59:00.918Z,9.90
2018-11-20T13:01:22.199Z,8.00
2018-11-20T13:04:02.615Z,11.30
2018-11-20T13:06:23.903Z,8.63
2018-11-20T13:08:45.685Z,16.60
2018-11-20T13:11:11.125Z,11.33
2018-11-20T13:13:40.307Z,9.20
2018-11-20T13:16:02.884Z,8.70
2018-11-20T13:18:22.764Z,10.80
2018-11-20T13:20:43.897Z,11.07
2018-11-20T13:23:04.636Z,10.00
2018-11-20T13:25:32.512Z,8.50
2018-11-20T13:27:53.746Z,10.20
2018-11-20T13:30:25.098Z,11.40
2018-11-20T13:32:42.397Z,10.73
2018-11-20T13:35:02.470Z,10.50
2018-11-20T13:37:35.606Z,14.23
2018-11-20T13:39:55.103Z,10.85
2018-11-20T13:42:28.337Z,11.63
2018-11-20T13:48:04.857Z,10.95
2018-11-20T13:50:25.749Z,12.00
2018-11-20T13:53:06.377Z,13.93
2018-11-20T13:55:27.290Z,8.97
2018-11-20T13:57:47.048Z,12.37
2018-11-20T14:00:09.741Z,13.03
2018-11-20T14:02:30.717Z,11.60
2018-11-20T14:04:52.260Z,16.60
2018-11-20T14:07:17.969Z,13.65
2018-11-20T14:09:43.316Z,13.20
2018-11-20T14:12:03.971Z,12.13
2018-11-20T14:14:22.937Z,12.77
2018-11-20T14:16:43.353Z,13.40
2018-11-20T14:19:05.945Z,14.50
2018-11-20T14:21:37.639Z,11.57
2018-11-20T14:24:06.084Z,12.33
2018-11-20T14:26:26.988Z,12.00
2018-11-20T14:28:52.561Z,13.43
2018-11-20T14:31:24.102Z,14.47
2018-11-20T14:33:55.372Z,14.50
2018-11-20T14:36:16.322Z,13.97
2018-11-20T14:38:41.869Z,14.20
2018-11-20T14:41:04.531Z,13.10
2018-11-20T14:43:20.017Z,13.10
2018-11-20T14:45:32.824Z,14.80
2018-11-20T14:47:46.142Z,16.30
2018-11-20T14:50:06.930Z,14.47
2018-11-20T14:52:27.697Z,14.10
2018-11-20T14:54:49.183Z,16.12
2018-11-20T14:57:10.061Z,13.23
2018-11-20T14:59:31.090Z,14.20
2018-11-20T15:01:56.475Z,15.07
2018-11-20T15:04:22.601Z,12.27
2018-11-20T15:06:45.198Z,16.20
2018-11-20T15:09:13.326Z,15.70
2018-11-20T15:11:35.760Z,14.97
2018-11-20T15:13:58.276Z,14.70
2018-11-20T15:16:19.926Z,15.17
2018-11-20T15:18:48.192Z,15.40
2018-11-20T15:21:09.139Z,14.23
2018-11-20T15:23:34.774Z,14.77
2018-11-20T15:25:54.333Z,14.13
2018-11-20T15:28:19.620Z,15.97
2018-11-20T15:30:57.383Z,12.20
2018-11-20T15:33:35.059Z,14.40
2018-11-20T15:36:00.182Z,13.43
2018-11-20T15:38:37.506Z,14.20
2018-11-20T15:40:58.477Z,20.17
2018-11-20T15:43:19.642Z,15.37
2018-11-20T15:45:42.526Z,13.20
2018-11-20T15:48:03.664Z,16.50
2018-11-20T15:50:26.356Z,12.50
2018-11-20T15:52:51.953Z,14.73
2018-11-20T15:55:20.270Z,11.47
2018-11-20T15:57:42.861Z,13.07
2018-11-20T16:00:00.702Z,14.17
2018-11-20T16:02:35.211Z,12.43
2018-11-20T16:04:57.823Z,13.20
2018-11-20T16:07:35.299Z,13.67
2018-11-20T16:10:06.790Z,13.27
2018-11-20T16:12:30.511Z,11.90
2018-11-20T16:14:48.844Z,13.40
2018-11-20T16:17:16.462Z,11.93
2018-11-20T16:19:26.550Z,10.70
2018-11-20T16:21:49.438Z,11.23
2018-11-20T16:24:15.268Z,14.03
2018-11-20T16:26:27.209Z,11.77
2018-11-20T16:28:48.328Z,11.43
2018-11-20T16:31:08.281Z,12.28
2018-11-20T16:33:23.308Z,11.87
2018-11-20T16:35:46.060Z,10.70
2018-11-20T16:38:17.672Z,12.03
2018-11-20T16:40:38.912Z,13.10
2018-11-20T16:43:01.573Z,12.28
2018-11-20T16:45:23.169Z,14.43
2018-11-20T16:47:43.715Z,13.57
2018-11-20T16:50:14.771Z,15.10
2018-11-20T16:52:35.575Z,10.53
2018-11-20T16:55:01.643Z,12.33
2018-11-20T16:57:27.515Z,12.75
2018-11-20T16:59:51.956Z,11.88
2018-11-20T17:02:13.141Z,12.53
2018-11-20T17:04:39.915Z,10.93
2018-11-20T17:07:14.562Z,11.23
2018-11-20T17:09:35.669Z,10.97
2018-11-20T17:11:56.760Z,10.30
2018-11-20T17:16:41.320Z,12.13
2018-11-20T17:19:18.656Z,14.63
2018-11-20T17:21:39.935Z,12.78
2018-11-20T17:24:08.496Z,14.53
2018-11-20T17:26:29.598Z,12.97
2018-11-20T17:28:49.860Z,12.43
2018-11-20T17:31:10.447Z,13.33
2018-11-20T17:33:51.091Z,14.00
2018-11-20T17:36:22.492Z,14.97
2018-11-20T17:38:59.917Z,13.73
2018-11-20T17:41:22.595Z,13.50
2018-11-20T17:43:43.739Z,14.55
2018-11-20T17:46:12.313Z,12.70
2018-11-20T17:48:31.774Z,12.73
2018-11-20T17:51:00.362Z,14.43
2018-11-20T17:53:25.572Z,15.50
2018-11-20T17:55:38.739Z,13.17
2018-11-20T17:57:59.780Z,20.70
2018-11-20T18:00:31.828Z,14.23
2018-11-20T18:03:09.698Z,16.93
2018-11-20T18:05:30.795Z,13.22
2018-11-20T18:07:55.902Z,14.07
2018-11-20T18:10:07.586Z,12.00
2018-11-20T18:12:28.657Z,13.60
2018-11-20T18:15:06.411Z,12.50
2018-11-20T18:17:21.209Z,13.53
2018-11-20T18:19:42.094Z,14.67
2018-11-20T18:21:59.040Z,14.10
2018-11-20T18:24:23.423Z,13.63
2018-11-20T18:26:43.485Z,15.18
2018-11-20T18:29:04.838Z,15.20
2018-11-20T18:31:18.019Z,18.05
2018-11-20T18:33:40.724Z,15.63
2018-11-20T18:36:03.864Z,17.30
2018-11-20T18:38:26.379Z,17.30
2018-11-20T18:40:47.493Z,17.13
2018-11-20T18:43:24.841Z,17.10
2018-11-20T18:45:45.986Z,15.17
2018-11-20T18:48:07.064Z,15.27
2018-11-20T18:50:35.701Z,17.17
2018-11-20T18:52:55.402Z,16.48
2018-11-20T18:55:16.248Z,15.57
2018-11-20T18:57:29.843Z,15.83
2018-11-20T18:59:52.671Z,16.10
2018-11-20T19:02:18.377Z,17.30
2018-11-20T19:04:52.979Z,16.60
2018-11-20T19:07:30.650Z,16.53
2018-11-20T19:10:11.179Z,17.55
2018-11-20T19:12:33.843Z,17.03
2018-11-20T19:15:11.618Z,16.10
2018-11-20T19:17:32.498Z,18.27
2018-11-20T19:19:46.367Z,20.17
2018-11-20T19:22:08.058Z,16.83
2018-11-20T19:24:28.727Z,17.83
2018-11-20T19:26:42.230Z,15.07
2018-11-20T19:29:13.656Z,16.33
2018-11-20T19:31:41.195Z,19.63
2018-11-20T19:33:56.026Z,18.17
2018-11-20T19:36:12.603Z,19.20
2018-11-20T19:38:35.045Z,17.00
2018-11-20T19:41:12.715Z,16.30
2018-11-20T19:43:36.632Z,17.57
2018-11-20T19:46:05.168Z,18.80
2018-11-20T19:48:28.081Z,16.87
2018-11-20T19:50:49.026Z,17.97
2018-11-20T19:53:12.112Z,17.23
2018-11-20T19:55:26.116Z,18.70
2018-11-20T19:57:53.134Z,18.23
2018-11-20T20:00:16.560Z,21.47
2018-11-20T20:02:37.774Z,17.43
2018-11-20T20:05:09.211Z,17.03
2018-11-20T20:07:19.753Z,16.20
2018-11-20T20:09:39.751Z,17.27
2018-11-20T20:12:01.010Z,21.90
2018-11-20T20:14:14.328Z,17.40
2018-11-20T20:16:42.509Z,20.30
2018-11-20T20:19:06.746Z,18.87
2018-11-20T20:21:23.589Z,17.57
2018-11-20T20:23:45.980Z,16.57
2018-11-20T20:26:23.634Z,17.00
2018-11-20T20:28:44.592Z,23.30
2018-11-20T20:31:25.297Z,18.37
2018-11-20T20:33:46.285Z,17.20
2018-11-20T20:35:59.344Z,16.12
2018-11-20T20:38:15.902Z,17.45
2018-11-20T20:40:37.275Z,17.77
2018-11-20T20:42:50.342Z,16.33
2018-11-20T20:45:28.158Z,17.50
2018-11-20T20:48:02.955Z,16.80
2018-11-20T20:50:15.462Z,14.75
2018-11-20T20:52:36.541Z,15.57
2018-11-20T20:55:07.900Z,13.80
2018-11-20T20:57:36.018Z,16.60
2018-11-20T20:59:57.085Z,19.07
2018-11-20T21:02:28.493Z,17.60
2018-11-20T21:05:06.334Z,16.67
2018-11-20T21:07:28.829Z,17.20
2018-11-20T21:09:43.828Z,16.80
2018-11-20T21:12:18.281Z,17.13
2018-11-20T21:14:41.361Z,16.13
2018-11-20T21:17:00.730Z,15.20
2018-11-20T21:19:16.544Z,15.70
2018-11-20T21:21:42.315Z,16.13
2018-11-20T21:24:10.941Z,16.83
2018-11-20T21:26:36.347Z,17.77
2018-11-20T21:28:48.838Z,17.07
2018-11-20T21:31:14.146Z,17.57
2018-11-20T21:33:40.439Z,18.10
2018-11-20T21:36:01.486Z,17.50
2018-11-20T21:38:27.090Z,16.47
2018-11-20T21:40:48.596Z,17.40
2018-11-20T21:43:10.249Z,18.60
2018-11-20T21:45:31.418Z,18.90
2018-11-20T21:47:45.064Z,16.77
2018-11-20T21:50:13.516Z,17.10
2018-11-20T21:52:41.753Z,17.10
2018-11-20T21:55:02.322Z,17.80
2018-11-20T21:57:31.201Z,16.67
2018-11-20T21:59:54.944Z,17.47
2018-11-20T22:02:35.478Z,17.70
2018-11-20T22:05:13.384Z,17.33
2018-11-20T22:07:35.993Z,16.57
2018-11-20T22:09:59.190Z,14.60
2018-11-20T22:12:20.270Z,18.50
2018-11-20T22:14:44.464Z,20.47
2018-11-20T22:17:12.974Z,15.18
2018-11-20T22:19:34.130Z,16.00
2018-11-20T22:21:59.399Z,20.87
2018-11-20T22:24:21.179Z,16.90
2018-11-20T22:26:55.683Z,18.57
2018-11-20T22:29:15.522Z,20.23
2018-11-20T22:31:46.222Z,16.70
2018-11-20T22:34:07.037Z,18.73
2018-11-20T22:36:44.820Z,17.50
2018-11-20T22:39:12.016Z,19.00
2018-11-20T22:41:25.689Z,15.93
2018-11-20T22:43:50.849Z,17.60
2018-11-20T22:46:22.442Z,15.50
2018-11-20T22:48:38.519Z,16.97
2018-11-20T22:50:51.143Z,17.20
2018-11-20T22:53:09.969Z,20.23
2018-11-20T22:55:35.451Z,17.63
2018-11-20T22:57:58.156Z,17.48
2018-11-20T23:00:23.569Z,16.83
2018-11-20T23:02:58.252Z,16.57
2018-11-20T23:05:19.968Z,16.60
2018-11-20T23:07:43.473Z,18.07
2018-11-20T23:09:47.010Z,16.50
2018-11-20T23:11:50.539Z,17.55
2018-11-20T23:13:54.153Z,18.30
2018-11-20T23:15:57.702Z,16.30
2018-11-20T23:18:01.160Z,21.03
2018-11-20T23:20:05.589Z,18.90
2018-11-20T23:22:09.083Z,18.73
2018-11-20T23:24:13.741Z,17.20
2018-11-20T23:26:17.524Z,19.40
2018-11-20T23:28:20.750Z,16.93
2018-11-20T23:30:24.253Z,17.05
2018-11-20T23:32:27.766Z,16.23
2018-11-20T23:34:30.967Z,17.23
2018-11-20T23:36:35.426Z,16.82
2018-11-20T23:38:38.876Z,18.83
2018-11-20T23:40:42.274Z,17.30
2018-11-20T23:42:46.017Z,17.60
2018-11-20T23:44:49.504Z,17.57
2018-11-20T23:46:53.054Z,18.67
2018-11-20T23:48:56.514Z,19.70
2018-11-20T23:51:00.090Z,16.50
2018-11-20T23:53:03.511Z,17.20
2018-11-20T23:55:08.754Z,19.50
2018-11-20T23:57:12.103Z,19.30
2018-11-20T23:59:15.610Z,17.70
